createdAt,value
2018-08-29T00:02:07.764Z,18.60
2018-08-29T00:04:35.875Z,13.60
2018-08-29T00:07:03.129Z,16.07
2018-08-29T00:09:37.811Z,15.70
2018-08-29T00:39:01.053Z,13.63
2018-08-29T00:41:28.271Z,14.10
2018-08-29T00:43:55.501Z,15.70
2018-08-29T00:46:22.785Z,17.50
2018-08-29T00:48:49.988Z,17.87
2018-08-29T00:51:17.375Z,17.13
2018-08-29T00:53:44.642Z,14.63
2018-08-29T00:56:11.907Z,11.63
2018-08-29T00:58:39.085Z,12.03
2018-08-29T01:01:07.541Z,12.30
2018-08-29T01:03:34.726Z,11.73
2018-08-29T01:06:01.980Z,14.37
2018-08-29T01:08:30.365Z,10.47
2018-08-29T01:10:57.548Z,15.33
2018-08-29T01:13:24.767Z,22.37
2018-08-29T01:15:52.013Z,14.13
2018-08-29T01:18:19.524Z,11.40
2018-08-29T01:20:46.930Z,14.03
2018-08-29T01:23:14.119Z,15.53
2018-08-29T01:25:41.635Z,14.60
2018-08-29T01:28:08.928Z,19.60
2018-08-29T01:30:36.480Z,17.70
2018-08-29T01:33:04.113Z,11.93
2018-08-29T01:35:31.344Z,12.03
2018-08-29T01:37:58.780Z,12.93
2018-08-29T01:40:26.761Z,16.00
2018-08-29T01:42:53.931Z,17.00
2018-08-29T01:45:21.154Z,11.93
2018-08-29T01:47:48.379Z,13.10
2018-08-29T01:50:15.579Z,13.57
2018-08-29T01:52:42.819Z,15.97
2018-08-29T01:55:10.063Z,13.27
2018-08-29T01:57:37.327Z,24.17
2018-08-29T02:00:04.773Z,13.50
2018-08-29T02:02:31.983Z,15.83
2018-08-29T02:04:59.271Z,14.20
2018-08-29T02:07:27.608Z,17.07
2018-08-29T02:09:54.852Z,16.13
2018-08-29T02:12:22.598Z,11.93
2018-08-29T02:14:49.850Z,12.07
2018-08-29T02:17:17.107Z,17.20
2018-08-29T02:19:44.377Z,17.77
2018-08-29T02:22:11.618Z,20.00
2018-08-29T02:24:38.827Z,14.10
2018-08-29T02:27:06.852Z,13.40
2018-08-29T02:29:34.439Z,19.53
2018-08-29T02:32:01.629Z,26.20
2018-08-29T02:34:28.840Z,18.03
2018-08-29T02:36:56.100Z,17.70
2018-08-29T02:39:23.264Z,16.73
2018-08-29T02:41:50.508Z,21.90
2018-08-29T02:44:17.764Z,16.40
2018-08-29T02:46:45.039Z,17.07
2018-08-29T02:49:12.233Z,18.77
2018-08-29T02:51:39.512Z,13.80
2018-08-29T02:54:06.971Z,16.17
2018-08-29T02:56:34.552Z,20.07
2018-08-29T02:59:02.328Z,15.73
2018-08-29T03:01:29.557Z,22.20
2018-08-29T03:03:57.391Z,20.73
2018-08-29T03:06:24.623Z,22.80
2018-08-29T03:08:52.619Z,18.80
2018-08-29T03:11:19.939Z,21.63
2018-08-29T03:13:47.191Z,17.43
2018-08-29T03:16:14.791Z,16.60
2018-08-29T03:18:42.060Z,12.07
2018-08-29T03:21:09.391Z,18.03
2018-08-29T03:23:36.756Z,17.50
2018-08-29T03:26:04.003Z,19.33
2018-08-29T03:28:31.172Z,14.53
2018-08-29T03:30:58.452Z,23.13
2018-08-29T03:33:25.677Z,20.20
2018-08-29T03:35:52.913Z,23.70
2018-08-29T03:38:20.207Z,17.00
2018-08-29T03:40:48.157Z,18.23
2018-08-29T03:43:15.368Z,14.87
2018-08-29T03:45:42.630Z,19.53
2018-08-29T03:48:09.859Z,17.87
2018-08-29T03:50:37.433Z,20.40
2018-08-29T03:53:04.821Z,17.60
2018-08-29T03:55:32.142Z,15.23
2018-08-29T03:57:59.332Z,15.50
2018-08-29T04:00:26.598Z,12.40
2018-08-29T04:02:53.876Z,13.50
2018-08-29T04:05:21.086Z,21.13
2018-08-29T04:07:48.376Z,17.23
2018-08-29T04:10:15.879Z,19.30
2018-08-29T04:12:43.057Z,16.53
2018-08-29T04:15:10.308Z,18.03
2018-08-29T04:17:37.664Z,16.90
2018-08-29T04:20:04.971Z,19.17
2018-08-29T04:22:32.176Z,22.23
2018-08-29T04:24:59.395Z,14.83
2018-08-29T04:27:26.799Z,23.40
2018-08-29T04:29:54.095Z,18.17
2018-08-29T04:32:21.529Z,16.00
2018-08-29T04:34:48.700Z,15.93
2018-08-29T04:37:16.043Z,14.40
2018-08-29T04:39:43.313Z,16.73
2018-08-29T04:42:10.616Z,13.33
2018-08-29T04:44:37.949Z,18.93
2018-08-29T04:47:05.445Z,14.90
2018-08-29T04:49:32.661Z,15.93
2018-08-29T04:52:00.428Z,17.73
2018-08-29T04:54:27.814Z,13.50
2018-08-29T04:56:55.087Z,18.80
2018-08-29T04:59:22.900Z,17.00
2018-08-29T05:01:50.210Z,17.00
2018-08-29T05:04:17.644Z,16.40
2018-08-29T05:06:44.859Z,20.27
2018-08-29T05:09:12.876Z,15.13
2018-08-29T05:11:40.320Z,13.80
2018-08-29T05:14:07.637Z,16.13
2018-08-29T05:16:35.037Z,17.53
2018-08-29T05:19:02.383Z,15.50
2018-08-29T05:21:30.849Z,17.20
2018-08-29T05:23:58.194Z,14.47
2018-08-29T05:26:25.535Z,19.97
2018-08-29T05:28:53.112Z,16.97
2018-08-29T05:31:20.689Z,17.77
2018-08-29T05:33:47.950Z,17.30
2018-08-29T05:36:15.457Z,25.60
2018-08-29T05:38:42.704Z,15.40
2018-08-29T05:41:10.125Z,20.10
2018-08-29T05:43:37.451Z,12.60
2018-08-29T05:46:05.330Z,14.87
2018-08-29T05:48:32.552Z,18.47
2018-08-29T05:50:59.788Z,17.43
2018-08-29T05:53:26.977Z,19.90
2018-08-29T05:55:54.349Z,17.50
2018-08-29T05:58:21.575Z,19.27
2018-08-29T06:00:48.911Z,21.53
2018-08-29T06:03:16.666Z,13.10
2018-08-29T06:05:44.150Z,14.50
2018-08-29T06:08:11.431Z,34.83
2018-08-29T06:10:38.965Z,21.63
2018-08-29T06:13:07.867Z,17.23
2018-08-29T06:15:35.162Z,17.80
2018-08-29T06:18:02.372Z,19.00
2018-08-29T06:20:31.047Z,21.10
2018-08-29T06:22:58.259Z,17.53
2018-08-29T06:25:25.466Z,14.30
2018-08-29T06:27:52.772Z,18.23
2018-08-29T06:30:20.145Z,17.90
2018-08-29T06:32:47.373Z,23.63
2018-08-29T11:44:21.592Z,14.50
2018-08-29T11:46:48.777Z,20.03
2018-08-29T11:49:16.011Z,15.97
2018-08-29T11:51:43.899Z,20.57
2018-08-29T11:54:11.283Z,10.53
2018-08-29T11:56:38.980Z,15.98
2018-08-29T12:13:47.444Z,10.80
2018-08-29T12:16:15.173Z,15.13
2018-08-29T12:18:43.048Z,10.08
2018-08-29T12:21:10.910Z,11.18
2018-08-29T12:23:38.840Z,10.40
2018-08-29T12:26:06.416Z,14.37
2018-08-29T12:28:34.587Z,12.53
2018-08-29T12:31:01.889Z,17.42
2018-08-29T12:33:29.211Z,14.03
2018-08-29T12:35:56.571Z,11.43
2018-08-29T12:38:24.068Z,9.20
2018-08-29T12:40:51.290Z,9.33
2018-08-29T12:43:18.613Z,13.10
2018-08-29T13:59:17.376Z,12.18
2018-08-29T14:01:45.282Z,12.73
2018-08-29T14:04:13.317Z,12.65
2018-08-29T14:06:41.620Z,12.73
2018-08-29T14:09:09.861Z,15.90
2018-08-29T14:11:37.185Z,13.55
2018-08-29T14:14:04.487Z,11.15
2018-08-29T14:16:32.226Z,11.73
2018-08-29T14:18:59.524Z,11.30
2018-08-29T14:21:26.877Z,11.25
2018-08-29T14:23:54.072Z,9.88
2018-08-29T14:26:21.432Z,10.65
2018-08-29T14:28:48.686Z,12.37
2018-08-29T14:31:16.363Z,9.80
2018-08-29T14:33:44.443Z,17.87
2018-08-29T14:36:11.933Z,12.25
2018-08-29T14:38:39.739Z,11.00
2018-08-29T14:41:08.879Z,12.58
2018-08-29T14:43:36.596Z,13.65
2018-08-29T14:50:57.585Z,13.00
2018-08-29T14:53:24.785Z,12.77
2018-08-29T14:55:52.084Z,10.28
2018-08-29T14:58:19.284Z,14.63
2018-08-29T15:01:00.460Z,13.50
2018-08-29T15:04:31.396Z,17.50
2018-08-29T15:06:59.393Z,12.10
2018-08-29T15:09:27.602Z,19.43
2018-08-29T15:11:54.980Z,12.10
2018-08-29T15:14:22.653Z,18.37
2018-08-29T15:16:50.316Z,11.40
2018-08-29T15:19:18.324Z,19.73
2018-08-29T15:21:46.475Z,13.67
2018-08-29T15:24:14.260Z,19.85
2018-08-29T15:26:42.270Z,16.80
2018-08-29T15:31:39.198Z,18.13
2018-08-29T15:34:06.646Z,21.83
2018-08-29T15:36:34.621Z,19.30
2018-08-29T15:39:03.616Z,17.30
2018-08-29T15:41:31.024Z,16.07
2018-08-29T15:53:47.593Z,21.57
2018-08-29T15:56:15.132Z,19.93
2018-08-29T15:58:43.622Z,17.90
2018-08-29T16:01:11.349Z,19.70
2018-08-29T16:03:39.323Z,18.20
2018-08-29T16:06:08.313Z,19.93
2018-08-29T16:08:39.372Z,20.00
2018-08-29T16:11:09.597Z,19.90
2018-08-29T16:13:37.650Z,17.07
2018-08-29T16:16:05.864Z,18.50
2018-08-29T16:18:33.503Z,16.47
2018-08-29T16:21:00.715Z,22.30
2018-08-29T16:23:27.957Z,22.23
2018-08-29T16:25:55.167Z,17.47
2018-08-29T16:28:22.566Z,18.62
2018-08-29T16:30:49.833Z,15.37
2018-08-29T16:33:17.759Z,19.35
2018-08-29T16:35:46.086Z,14.90
2018-08-29T16:38:14.260Z,17.00
2018-08-29T16:40:42.045Z,18.00
2018-08-29T16:43:10.527Z,16.93
2018-08-29T16:45:39.385Z,18.35
2018-08-29T16:48:08.076Z,17.65
2018-08-29T16:50:36.953Z,21.23
2018-08-29T16:53:04.942Z,20.10
2018-08-29T16:55:32.839Z,22.65
2018-08-29T16:58:00.153Z,18.80
2018-08-29T17:00:27.785Z,21.30
2018-08-29T17:02:55.072Z,17.40
2018-08-29T17:05:22.407Z,21.37
2018-08-29T17:07:49.800Z,18.25
2018-08-29T17:10:17.785Z,21.40
2018-08-29T17:12:45.462Z,18.57
2018-08-29T17:15:13.008Z,23.50
2018-08-29T17:17:41.447Z,21.57
2018-08-29T17:20:10.074Z,20.20
2018-08-29T17:22:37.639Z,27.07
2018-08-29T17:25:06.697Z,22.90
2018-08-29T17:27:35.654Z,19.47
2018-08-29T17:30:03.068Z,20.10
2018-08-29T17:32:30.847Z,18.83
2018-08-29T17:34:58.083Z,27.17
2018-08-29T17:37:25.362Z,21.40
2018-08-29T17:39:52.836Z,17.80
2018-08-29T17:42:20.128Z,23.27
2018-08-29T17:44:47.368Z,29.63
2018-08-29T17:47:15.449Z,20.03
2018-08-29T17:49:43.420Z,35.00
2018-08-29T17:52:11.105Z,18.80
2018-08-29T17:54:38.978Z,21.00
2018-08-29T17:57:07.111Z,22.73
2018-08-29T17:59:34.573Z,23.90
2018-08-29T18:02:02.295Z,21.70
2018-08-29T18:04:29.687Z,19.37
2018-08-29T18:06:57.137Z,20.83
2018-08-29T18:09:24.696Z,20.73
2018-08-29T18:11:52.222Z,20.83
2018-08-29T18:14:19.716Z,23.93
2018-08-29T18:16:47.802Z,21.53
2018-08-29T18:19:15.156Z,35.00
2018-08-29T18:21:42.709Z,31.87
2018-08-29T18:24:10.853Z,32.43
2018-08-29T18:26:39.185Z,31.10
2018-08-29T18:29:07.011Z,38.43
2018-08-29T18:31:34.245Z,38.53
2018-08-29T18:34:02.115Z,22.70
2018-08-29T18:36:29.356Z,31.80
2018-08-29T18:38:56.620Z,24.10
2018-08-29T18:41:23.914Z,32.87
2018-08-29T18:43:51.105Z,26.40
2018-08-29T18:46:18.363Z,30.30
2018-08-29T18:48:45.926Z,46.87
2018-08-29T18:51:14.039Z,41.53
2018-08-29T18:53:41.403Z,40.43
2018-08-29T18:56:09.043Z,40.50
2018-08-29T18:58:36.742Z,32.43
2018-08-29T19:01:04.270Z,33.73
2018-08-29T19:03:31.469Z,37.37
2018-08-29T19:05:58.725Z,34.03
2018-08-29T19:08:25.982Z,33.03
2018-08-29T19:11:13.961Z,29.33
2018-08-29T19:13:41.291Z,35.70
2018-08-29T19:16:08.677Z,26.60
2018-08-29T19:18:36.520Z,26.90
2018-08-29T19:21:04.491Z,30.27
2018-08-29T19:23:31.850Z,33.87
2018-08-29T19:25:59.108Z,24.97
2018-08-29T19:28:26.340Z,36.97
2018-08-29T19:30:53.610Z,28.67
2018-08-29T19:33:20.844Z,27.67
2018-08-29T19:35:48.096Z,37.33
2018-08-29T19:38:16.533Z,30.33
2018-08-29T19:40:44.447Z,25.23
2018-08-29T19:43:12.111Z,39.60
2018-08-29T19:45:39.515Z,25.03
2018-08-29T19:48:07.741Z,29.73
2018-08-29T19:50:36.148Z,27.33
2018-08-29T19:53:03.673Z,33.07
2018-08-29T19:55:31.478Z,30.70
2018-08-29T19:57:58.850Z,30.70
2018-08-29T20:00:27.223Z,26.70
2018-08-29T20:02:54.391Z,29.23
2018-08-29T20:05:21.680Z,33.23
2018-08-29T20:07:49.145Z,23.63
2018-08-29T20:10:16.399Z,24.33
2018-08-29T20:12:44.125Z,30.20
2018-08-29T20:15:11.802Z,25.30
2018-08-29T20:17:39.474Z,27.87
2018-08-29T20:20:08.583Z,27.10
2018-08-29T20:22:36.662Z,30.17
2018-08-29T20:25:04.162Z,32.83
2018-08-29T20:27:31.668Z,26.00
2018-08-29T20:29:59.212Z,30.27
2018-08-29T20:32:26.497Z,27.57
2018-08-29T20:34:53.660Z,25.73
2018-08-29T20:37:21.007Z,27.27
2018-08-29T20:39:48.269Z,35.33
2018-08-29T20:42:15.998Z,31.40
2018-08-29T20:44:43.532Z,32.83
2018-08-29T20:47:11.421Z,25.57
2018-08-29T20:49:38.772Z,23.07
2018-08-29T20:52:06.406Z,26.67
2018-08-29T20:54:34.733Z,23.97
2018-08-29T20:57:01.948Z,32.60
2018-08-29T20:59:29.560Z,30.43
2018-08-29T21:01:56.811Z,31.00
2018-08-29T21:04:24.146Z,26.77
2018-08-29T21:06:52.321Z,31.03
2018-08-29T21:11:46.688Z,24.15
2018-08-29T21:14:14.889Z,23.38
2018-08-29T21:16:42.775Z,23.90
2018-08-29T21:19:11.011Z,27.50
2018-08-29T21:21:39.464Z,22.65
2018-08-29T21:24:08.057Z,24.57
2018-08-29T21:26:37.061Z,31.43
2018-08-29T21:29:21.190Z,28.07
2018-08-29T23:04:35.746Z,28.77
2018-08-29T23:07:03.364Z,21.25
2018-08-29T23:09:30.857Z,23.25
2018-08-29T23:11:58.129Z,21.05
2018-08-29T23:14:25.545Z,21.50
2018-08-29T23:16:53.078Z,26.00
2018-08-29T23:19:20.435Z,22.50
2018-08-29T23:21:48.668Z,25.97
2018-08-29T23:24:16.300Z,23.67
2018-08-29T23:26:44.039Z,26.95
2018-08-29T23:29:12.270Z,26.62
2018-08-29T23:31:41.156Z,22.30
2018-08-29T23:34:08.963Z,26.67
2018-08-29T23:36:36.783Z,21.73
2018-08-29T23:39:09.205Z,29.17
2018-08-29T23:41:39.073Z,27.77
2018-08-29T23:44:07.086Z,29.57
2018-08-29T23:46:36.455Z,32.80
2018-08-29T23:49:04.880Z,35.10
2018-08-29T23:51:33.508Z,32.83
2018-08-29T23:54:00.967Z,26.17
2018-08-29T23:56:28.367Z,30.43
2018-08-29T23:58:56.814Z,26.87
